Riverside, RI (02915)

6:33 AM EST on December 18, 2014 (GMT -0500)
Edgewood | Change Station
CLOSE
Current Station
Personal Weather Station
Location: Cranston, RI
Elevation: 2 ft
Nearby Weather Stations

Elev 2 ft 41.79 °N, 71.40 °W | Updated 6 minutes ago

Rain
Rain
37.8 °F
Feels Like 33 °F
N
6.3
Wind Variable Wind from NW

Today
High -- | Low -- °F
--% Chance of Precip.
Yesterday
High -- | Low -- °F
Precip. -- in
7:07 AM 4:16 PM
Waning Crescent, 15% visible
Pressure 29.78 in
Visibility 10.0 miles
Clouds Overcast 6000 ft
Windchill 33 °F
Dew Point 33 °F
Humidity 84%
Rainfall 0.00 in
Snow Depth Not available.
UV 0 out of 12
Pollen .10 out of 12
Air Quality Not available.
Flu Activity Not available.
METAR KPVD 181051Z 28012G18KT 10SM -RA OVC060 04/M02 A2978 RMK AO2 RAB41 SLP083 FIRST AUGMENTED P0000 T00391017

More Conditions Fewer Conditions

Pressure 29.78 in
Visibility 10.0 miles
Clouds Overcast 6000 ft
Windchill 33 °F
Dew Point 33 °F
Humidity 84%
Rainfall 0.00 in
Snow Depth Not available.
UV 0 out of 12
Pollen .10 out of 12
Air Quality Not available.
Flu Activity Not available.
METAR KPVD 181051Z 28012G18KT 10SM -RA OVC060 04/M02 A2978 RMK AO2 RAB41 SLP083 FIRST AUGMENTED P0000 T00391017

More Conditions Fewer Conditions

10-Day Weather Forecast

Almanac

Astronomy

Dec. 18, 2014 Rise Set
Actual Time
Civil Twilight
Nautical Twilight
Astronomical Twilight
Moon
Length of Visible Light
Length of Day
Tomorrow will be .
, % of the Moon is Illuminated

Today's Extremes

State Highs State Lows

Community

WunderPhotos

Upload Photos

1,778,919 photos uploaded!

WunderBlogs® & News

Nearby

Air Quality

  Air Quality AQ Index Pollutant
Not available.

Snow Depth

Station Depth Elevation

Earthquake Activity

City Distance Mag. Time & Date
Minimum magnitude displayed is 2.5.

Coastal Water Temperatures

Place Temperature

Nearby Weather Stations